Terminal Aerodrome Forecast
Issued by NWS Charleston, WV

Home | Current Version | Previous Version | Text Only | Print | Product List | Glossary On
Versions: 1 2 3 4 5 6 7 8 9 10 11 12 13 14 15 16 17 18 19 20 21 22 23 24 25 26
398
FTUS41 KRLX 221755 AAA
TAFEKN
TAF AMD
KEKN 221755Z 2218/2318 16010G18KT P6SM SCT100 BKN200
     FM230000 15005KT P6SM BKN200 WS020/21040KT
     FM230300 17007KT P6SM VCSH BKN080 WS020/19050KT
     FM230900 20010G20KT 5SM -SHRA OVC025
     FM231000 24007KT P6SM BKN030
     FM231500 24015G25KT P6SM BKN025=

USA.gov is the U.S. government's official web portal to all federal, state and local government web resources and services.